sensor_id;sensor_type;location;lat;lon;timestamp;pressure;altitude;pressure_sealevel;temperature;humidity
27014;BME280;14556;52.222;4.510;2023-06-26T00:01:04;100448.38;;;22.74;100.00
27014;BME280;14556;52.222;4.510;2023-06-26T00:03:31;100450.91;;;22.40;100.00
27014;BME280;14556;52.222;4.510;2023-06-26T00:05:59;100443.28;;;22.67;100.00
27014;BME280;14556;52.222;4.510;2023-06-26T00:08:27;100455.31;;;22.66;100.00
27014;BME280;14556;52.222;4.510;2023-06-26T00:10:54;100451.00;;;22.84;100.00
27014;BME280;14556;52.222;4.510;2023-06-26T00:13:21;100462.00;;;22.49;100.00
27014;BME280;14556;52.222;4.510;2023-06-26T00:15:48;100465.13;;;22.37;100.00
27014;BME280;14556;52.222;4.510;2023-06-26T00:18:15;100464.06;;;22.33;100.00
27014;BME280;14556;52.222;4.510;2023-06-26T00:20:41;100465.75;;;22.29;100.00
27014;BME280;14556;52.222;4.510;2023-06-26T00:23:08;100470.84;;;22.06;100.00
27014;BME280;14556;52.222;4.510;2023-06-26T00:25:34;100471.09;;;21.74;100.00
27014;BME280;14556;52.222;4.510;2023-06-26T00:28:01;100473.09;;;21.58;100.00
27014;BME280;14556;52.222;4.510;2023-06-26T00:30:27;100476.84;;;21.68;100.00
27014;BME280;14556;52.222;4.510;2023-06-26T00:32:54;100474.66;;;21.65;100.00
27014;BME280;14556;52.222;4.510;2023-06-26T00:35:21;100470.88;;;21.66;100.00
27014;BME280;14556;52.222;4.510;2023-06-26T00:37:47;100458.91;;;21.61;100.00
27014;BME280;14556;52.222;4.510;2023-06-26T00:40:14;100466.44;;;21.75;100.00
27014;BME280;14556;52.222;4.510;2023-06-26T00:42:41;100464.19;;;21.88;100.00
27014;BME280;14556;52.222;4.510;2023-06-26T00:45:07;100468.47;;;21.99;100.00
27014;BME280;14556;52.222;4.510;2023-06-26T00:47:34;100467.31;;;21.65;100.00
27014;BME280;14556;52.222;4.510;2023-06-26T00:50:01;100470.09;;;21.60;100.00
27014;BME280;14556;52.222;4.510;2023-06-26T00:52:28;100458.16;;;21.50;100.00
27014;BME280;14556;52.222;4.510;2023-06-26T00:54:55;100484.25;;;21.11;100.00
27014;BME280;14556;52.222;4.510;2023-06-26T00:57:22;100490.06;;;21.45;100.00
27014;BME280;14556;52.222;4.510;2023-06-26T00:59:49;100489.28;;;21.34;100.00
27014;BME280;14556;52.222;4.510;2023-06-26T01:02:16;100498.13;;;21.05;100.00
27014;BME280;14556;52.222;4.510;2023-06-26T01:04:51;100490.53;;;20.96;100.00
27014;BME280;14556;52.222;4.510;2023-06-26T01:07:20;100478.31;;;20.88;100.00
27014;BME280;14556;52.222;4.510;2023-06-26T01:09:48;100476.69;;;20.98;100.00
27014;BME280;14556;52.222;4.510;2023-06-26T01:12:15;100486.72;;;21.02;100.00
27014;BME280;14556;52.222;4.510;2023-06-26T01:14:42;100485.41;;;20.79;100.00
27014;BME280;14556;52.222;4.510;2023-06-26T01:17:09;100476.22;;;20.70;100.00
27014;BME280;14556;52.222;4.510;2023-06-26T01:19:41;100475.44;;;21.30;100.00
27014;BME280;14556;52.222;4.510;2023-06-26T01:22:18;100476.22;;;20.70;100.00
27014;BME280;14556;52.222;4.510;2023-06-26T01:24:56;100487.31;;;20.84;100.00
27014;BME280;14556;52.222;4.510;2023-06-26T01:27:30;100472.94;;;20.73;100.00
27014;BME280;14556;52.222;4.510;2023-06-26T01:30:01;100468.25;;;20.99;100.00
27014;BME280;14556;52.222;4.510;2023-06-26T01:32:29;100479.63;;;21.07;100.00
27014;BME280;14556;52.222;4.510;2023-06-26T01:34:57;100489.16;;;21.04;100.00
27014;BME280;14556;52.222;4.510;2023-06-26T01:37:24;100494.69;;;20.73;100.00
27014;BME280;14556;52.222;4.510;2023-06-26T01:39:50;100501.44;;;20.81;100.00
27014;BME280;14556;52.222;4.510;2023-06-26T01:42:17;100493.56;;;20.79;100.00
27014;BME280;14556;52.222;4.510;2023-06-26T01:44:46;100456.41;;;20.59;100.00
27014;BME280;14556;52.222;4.510;2023-06-26T01:47:19;100484.78;;;21.13;100.00
27014;BME280;14556;52.222;4.510;2023-06-26T01:50:22;100479.38;;;21.03;100.00
27014;BME280;14556;52.222;4.510;2023-06-26T01:52:55;100479.00;;;20.28;100.00
27014;BME280;14556;52.222;4.510;2023-06-26T01:55:32;100489.81;;;20.59;100.00
27014;BME280;14556;52.222;4.510;2023-06-26T01:58:02;100492.25;;;20.71;100.00
27014;BME280;14556;52.222;4.510;2023-06-26T02:00:30;100481.88;;;20.84;100.00
27014;BME280;14556;52.222;4.510;2023-06-26T02:02:57;100491.72;;;20.59;100.00
27014;BME280;14556;52.222;4.510;2023-06-26T02:05:24;100508.59;;;20.35;100.00
27014;BME280;14556;52.222;4.510;2023-06-26T02:07:51;100502.38;;;20.19;100.00
27014;BME280;14556;52.222;4.510;2023-06-26T02:10:17;100496.94;;;20.19;100.00
27014;BME280;14556;52.222;4.510;2023-06-26T02:12:44;100490.09;;;20.00;100.00
27014;BME280;14556;52.222;4.510;2023-06-26T02:15:10;100490.09;;;19.85;100.00
27014;BME280;14556;52.222;4.510;2023-06-26T02:17:37;100500.69;;;19.86;100.00
27014;BME280;14556;52.222;4.510;2023-06-26T02:20:04;100513.47;;;19.86;100.00
27014;BME280;14556;52.222;4.510;2023-06-26T02:22:30;100506.13;;;19.81;100.00
27014;BME280;14556;52.222;4.510;2023-06-26T02:24:57;100505.22;;;19.44;100.00
27014;BME280;14556;52.222;4.510;2023-06-26T02:27:23;100503.00;;;19.30;100.00
27014;BME280;14556;52.222;4.510;2023-06-26T02:29:50;100495.94;;;19.14;100.00
27014;BME280;14556;52.222;4.510;2023-06-26T02:32:16;100506.41;;;19.00;100.00
27014;BME280;14556;52.222;4.510;2023-06-26T02:34:43;100499.50;;;19.35;100.00
27014;BME280;14556;52.222;4.510;2023-06-26T02:37:09;100504.91;;;19.30;100.00
27014;BME280;14556;52.222;4.510;2023-06-26T02:39:36;100495.97;;;19.24;100.00
27014;BME280;14556;52.222;4.510;2023-06-26T02:42:03;100515.44;;;19.16;100.00
27014;BME280;14556;52.222;4.510;2023-06-26T02:44:30;100514.81;;;18.98;100.00
27014;BME280;14556;52.222;4.510;2023-06-26T02:46:59;100533.09;;;18.75;100.00
27014;BME280;14556;52.222;4.510;2023-06-26T02:49:25;100526.59;;;18.76;100.00
27014;BME280;14556;52.222;4.510;2023-06-26T02:51:52;100524.69;;;18.77;100.00
27014;BME280;14556;52.222;4.510;2023-06-26T02:54:18;100530.38;;;18.75;100.00
27014;BME280;14556;52.222;4.510;2023-06-26T02:56:45;100532.69;;;18.99;100.00
27014;BME280;14556;52.222;4.510;2023-06-26T02:59:14;100538.94;;;19.00;100.00
27014;BME280;14556;52.222;4.510;2023-06-26T03:01:40;100552.34;;;18.79;100.00
27014;BME280;14556;52.222;4.510;2023-06-26T03:04:07;100551.41;;;18.57;100.00
27014;BME280;14556;52.222;4.510;2023-06-26T03:06:34;100556.34;;;18.33;100.00
27014;BME280;14556;52.222;4.510;2023-06-26T03:09:01;100557.97;;;18.34;100.00
27014;BME280;14556;52.222;4.510;2023-06-26T03:11:27;100551.72;;;18.28;100.00
27014;BME280;14556;52.222;4.510;2023-06-26T03:13:54;100561.47;;;18.29;100.00
27014;BME280;14556;52.222;4.510;2023-06-26T03:16:21;100566.19;;;18.44;100.00
27014;BME280;14556;52.222;4.510;2023-06-26T03:18:47;100563.78;;;18.48;100.00
27014;BME280;14556;52.222;4.510;2023-06-26T03:21:14;100553.66;;;18.33;100.00
27014;BME280;14556;52.222;4.510;2023-06-26T03:23:40;100559.06;;;18.33;100.00
27014;BME280;14556;52.222;4.510;2023-06-26T03:26:07;100560.19;;;18.42;100.00
27014;BME280;14556;52.222;4.510;2023-06-26T03:28:33;100557.94;;;18.29;100.00
27014;BME280;14556;52.222;4.510;2023-06-26T03:31:00;100562.56;;;18.06;100.00
27014;BME280;14556;52.222;4.510;2023-06-26T03:33:26;100579.50;;;18.18;100.00
27014;BME280;14556;52.222;4.510;2023-06-26T03:35:53;100572.50;;;18.22;100.00
27014;BME280;14556;52.222;4.510;2023-06-26T03:38:21;100578.06;;;18.10;100.00
27014;BME280;14556;52.222;4.510;2023-06-26T03:40:48;100580.84;;;17.93;100.00
27014;BME280;14556;52.222;4.510;2023-06-26T03:43:16;100569.22;;;17.93;100.00
27014;BME280;14556;52.222;4.510;2023-06-26T03:45:43;100577.56;;;17.86;100.00
27014;BME280;14556;52.222;4.510;2023-06-26T03:48:09;100572.88;;;17.81;100.00
27014;BME280;14556;52.222;4.510;2023-06-26T03:50:36;100577.91;;;17.95;100.00
27014;BME280;14556;52.222;4.510;2023-06-26T03:53:03;100579.94;;;17.82;100.00
27014;BME280;14556;52.222;4.510;2023-06-26T03:55:29;100579.47;;;17.63;100.00
27014;BME280;14556;52.222;4.510;2023-06-26T03:57:56;100588.31;;;17.58;100.00
27014;BME280;14556;52.222;4.510;2023-06-26T04:00:22;100596.13;;;17.55;100.00
27014;BME280;14556;52.222;4.510;2023-06-26T04:02:49;100598.03;;;17.54;100.00
27014;BME280;14556;52.222;4.510;2023-06-26T04:05:17;100609.16;;;17.58;100.00
27014;BME280;14556;52.222;4.510;2023-06-26T04:07:44;100617.66;;;17.67;100.00
27014;BME280;14556;52.222;4.510;2023-06-26T04:10:10;100617.25;;;17.58;100.00
27014;BME280;14556;52.222;4.510;2023-06-26T04:12:37;100619.06;;;17.52;100.00
27014;BME280;14556;52.222;4.510;2023-06-26T04:15:03;100607.13;;;17.48;100.00
27014;BME280;14556;52.222;4.510;2023-06-26T04:17:30;100627.06;;;17.64;100.00
27014;BME280;14556;52.222;4.510;2023-06-26T04:19:57;100614.72;;;17.96;100.00
27014;BME280;14556;52.222;4.510;2023-06-26T04:22:23;100624.66;;;17.90;100.00
27014;BME280;14556;52.222;4.510;2023-06-26T04:24:51;100629.88;;;17.97;100.00
27014;BME280;14556;52.222;4.510;2023-06-26T04:27:18;100629.06;;;17.96;100.00
27014;BME280;14556;52.222;4.510;2023-06-26T04:29:44;100623.81;;;17.84;100.00
27014;BME280;14556;52.222;4.510;2023-06-26T04:32:11;100626.97;;;18.04;100.00
27014;BME280;14556;52.222;4.510;2023-06-26T04:34:37;100631.84;;;18.29;100.00
27014;BME280;14556;52.222;4.510;2023-06-26T04:37:07;100618.28;;;18.57;100.00
27014;BME280;14556;52.222;4.510;2023-06-26T04:39:39;100621.69;;;18.42;100.00
27014;BME280;14556;52.222;4.510;2023-06-26T04:42:06;100628.41;;;18.39;100.00
27014;BME280;14556;52.222;4.510;2023-06-26T04:44:33;100631.44;;;18.15;100.00
27014;BME280;14556;52.222;4.510;2023-06-26T04:47:00;100626.28;;;18.14;100.00
27014;BME280;14556;52.222;4.510;2023-06-26T04:49:26;100635.88;;;18.27;100.00
27014;BME280;14556;52.222;4.510;2023-06-26T04:51:54;100650.81;;;18.29;100.00
27014;BME280;14556;52.222;4.510;2023-06-26T04:54:21;100647.91;;;18.36;100.00
27014;BME280;14556;52.222;4.510;2023-06-26T04:56:48;100658.16;;;18.34;100.00
27014;BME280;14556;52.222;4.510;2023-06-26T04:59:14;100662.63;;;18.45;100.00
27014;BME280;14556;52.222;4.510;2023-06-26T05:01:41;100661.28;;;18.48;100.00
27014;BME280;14556;52.222;4.510;2023-06-26T05:04:08;100669.69;;;18.52;100.00
27014;BME280;14556;52.222;4.510;2023-06-26T05:06:34;100668.97;;;18.61;100.00
27014;BME280;14556;52.222;4.510;2023-06-26T05:09:01;100673.03;;;18.59;100.00
27014;BME280;14556;52.222;4.510;2023-06-26T05:11:28;100687.44;;;18.65;100.00
27014;BME280;14556;52.222;4.510;2023-06-26T05:13:54;100686.69;;;18.75;100.00
27014;BME280;14556;52.222;4.510;2023-06-26T05:16:21;100689.22;;;18.54;100.00
27014;BME280;14556;52.222;4.510;2023-06-26T05:18:47;100673.88;;;18.37;100.00
27014;BME280;14556;52.222;4.510;2023-06-26T05:21:15;100690.00;;;18.49;100.00
27014;BME280;14556;52.222;4.510;2023-06-26T05:23:42;100688.28;;;18.70;100.00
27014;BME280;14556;52.222;4.510;2023-06-26T05:26:13;100694.31;;;18.78;100.00
27014;BME280;14556;52.222;4.510;2023-06-26T05:28:40;100700.66;;;18.61;100.00
27014;BME280;14556;52.222;4.510;2023-06-26T05:31:07;100709.16;;;18.70;100.00
27014;BME280;14556;52.222;4.510;2023-06-26T05:33:35;100705.56;;;18.97;100.00
27014;BME280;14556;52.222;4.510;2023-06-26T05:36:04;100701.69;;;18.82;100.00
27014;BME280;14556;52.222;4.510;2023-06-26T05:38:31;100705.28;;;18.93;100.00
27014;BME280;14556;52.222;4.510;2023-06-26T05:40:57;100712.22;;;19.12;100.00
27014;BME280;14556;52.222;4.510;2023-06-26T05:43:24;100712.97;;;19.07;100.00
27014;BME280;14556;52.222;4.510;2023-06-26T05:45:55;100722.28;;;19.16;100.00
27014;BME280;14556;52.222;4.510;2023-06-26T05:48:22;100730.56;;;19.37;100.00
27014;BME280;14556;52.222;4.510;2023-06-26T05:50:49;100734.41;;;19.41;100.00
27014;BME280;14556;52.222;4.510;2023-06-26T05:53:16;100725.53;;;19.56;100.00
27014;BME280;14556;52.222;4.510;2023-06-26T05:55:43;100727.63;;;19.44;100.00
27014;BME280;14556;52.222;4.510;2023-06-26T05:58:10;100740.81;;;19.30;100.00
27014;BME280;14556;52.222;4.510;2023-06-26T06:00:39;100730.69;;;19.15;100.00
27014;BME280;14556;52.222;4.510;2023-06-26T06:03:06;100727.59;;;19.06;100.00
27014;BME280;14556;52.222;4.510;2023-06-26T06:05:33;100721.81;;;18.64;100.00
27014;BME280;14556;52.222;4.510;2023-06-26T06:07:59;100731.03;;;18.63;100.00
27014;BME280;14556;52.222;4.510;2023-06-26T06:10:26;100755.00;;;18.77;100.00
27014;BME280;14556;52.222;4.510;2023-06-26T06:12:52;100748.84;;;18.87;100.00
27014;BME280;14556;52.222;4.510;2023-06-26T06:15:20;100756.63;;;19.11;100.00
27014;BME280;14556;52.222;4.510;2023-06-26T06:17:47;100748.47;;;19.38;100.00
27014;BME280;14556;52.222;4.510;2023-06-26T06:20:14;100758.69;;;19.26;100.00
27014;BME280;14556;52.222;4.510;2023-06-26T06:22:40;100767.88;;;19.25;100.00
27014;BME280;14556;52.222;4.510;2023-06-26T06:25:07;100762.25;;;19.04;100.00
27014;BME280;14556;52.222;4.510;2023-06-26T06:27:33;100767.16;;;19.02;100.00
27014;BME280;14556;52.222;4.510;2023-06-26T06:30:00;100768.31;;;19.11;100.00
27014;BME280;14556;52.222;4.510;2023-06-26T06:32:27;100757.81;;;18.87;100.00
27014;BME280;14556;52.222;4.510;2023-06-26T06:34:53;100775.59;;;18.78;100.00
27014;BME280;14556;52.222;4.510;2023-06-26T06:37:20;100779.94;;;19.06;100.00
27014;BME280;14556;52.222;4.510;2023-06-26T06:39:46;100786.28;;;19.17;100.00
27014;BME280;14556;52.222;4.510;2023-06-26T06:42:13;100774.97;;;19.26;100.00
27014;BME280;14556;52.222;4.510;2023-06-26T06:44:39;100783.66;;;19.28;100.00
27014;BME280;14556;52.222;4.510;2023-06-26T06:47:06;100785.44;;;19.50;100.00
27014;BME280;14556;52.222;4.510;2023-06-26T06:49:33;100792.34;;;19.30;100.00
27014;BME280;14556;52.222;4.510;2023-06-26T06:51:59;100810.59;;;19.40;100.00
27014;BME280;14556;52.222;4.510;2023-06-26T06:54:26;100803.13;;;19.57;100.00
27014;BME280;14556;52.222;4.510;2023-06-26T06:56:54;100799.53;;;19.47;100.00
27014;BME280;14556;52.222;4.510;2023-06-26T06:59:20;100812.19;;;19.36;100.00
27014;BME280;14556;52.222;4.510;2023-06-26T07:01:47;100808.44;;;19.42;100.00
27014;BME280;14556;52.222;4.510;2023-06-26T07:04:13;100830.44;;;19.45;100.00
27014;BME280;14556;52.222;4.510;2023-06-26T07:06:40;100824.38;;;19.33;100.00
27014;BME280;14556;52.222;4.510;2023-06-26T07:09:06;100825.59;;;19.20;100.00
27014;BME280;14556;52.222;4.510;2023-06-26T07:11:33;100826.56;;;19.36;100.00
27014;BME280;14556;52.222;4.510;2023-06-26T07:13:59;100817.50;;;19.58;100.00
27014;BME280;14556;52.222;4.510;2023-06-26T07:16:26;100825.91;;;19.56;100.00
27014;BME280;14556;52.222;4.510;2023-06-26T07:18:53;100823.16;;;19.51;100.00
27014;BME280;14556;52.222;4.510;2023-06-26T07:21:19;100818.63;;;19.62;100.00
27014;BME280;14556;52.222;4.510;2023-06-26T07:23:46;100833.72;;;19.86;100.00
27014;BME280;14556;52.222;4.510;2023-06-26T07:26:14;100832.94;;;19.96;100.00
27014;BME280;14556;52.222;4.510;2023-06-26T07:28:41;100839.03;;;20.08;100.00
27014;BME280;14556;52.222;4.510;2023-06-26T07:31:07;100831.22;;;19.84;100.00
27014;BME280;14556;52.222;4.510;2023-06-26T07:33:36;100842.91;;;19.85;100.00
27014;BME280;14556;52.222;4.510;2023-06-26T07:36:03;100851.91;;;19.90;100.00
27014;BME280;14556;52.222;4.510;2023-06-26T07:38:29;100850.69;;;19.71;100.00
27014;BME280;14556;52.222;4.510;2023-06-26T07:40:56;100847.91;;;20.03;100.00
27014;BME280;14556;52.222;4.510;2023-06-26T07:43:23;100858.19;;;19.96;100.00
27014;BME280;14556;52.222;4.510;2023-06-26T07:45:50;100858.75;;;20.03;100.00
27014;BME280;14556;52.222;4.510;2023-06-26T07:48:17;100853.38;;;20.09;100.00
27014;BME280;14556;52.222;4.510;2023-06-26T07:50:44;100850.44;;;20.10;100.00
27014;BME280;14556;52.222;4.510;2023-06-26T07:53:11;100862.91;;;20.06;100.00
27014;BME280;14556;52.222;4.510;2023-06-26T07:55:37;100868.22;;;19.96;100.00
27014;BME280;14556;52.222;4.510;2023-06-26T07:58:05;100875.97;;;20.14;100.00
27014;BME280;14556;52.222;4.510;2023-06-26T08:00:31;100874.06;;;20.10;100.00
27014;BME280;14556;52.222;4.510;2023-06-26T08:02:58;100890.63;;;20.13;100.00
27014;BME280;14556;52.222;4.510;2023-06-26T08:05:25;100882.59;;;20.34;100.00
27014;BME280;14556;52.222;4.510;2023-06-26T08:07:53;100883.19;;;20.41;100.00
27014;BME280;14556;52.222;4.510;2023-06-26T08:10:19;100876.38;;;20.44;100.00
27014;BME280;14556;52.222;4.510;2023-06-26T08:12:46;100878.31;;;20.44;100.00
27014;BME280;14556;52.222;4.510;2023-06-26T08:15:13;100878.84;;;20.46;100.00
27014;BME280;14556;52.222;4.510;2023-06-26T08:17:39;100876.47;;;20.70;100.00
27014;BME280;14556;52.222;4.510;2023-06-26T08:20:06;100888.47;;;20.80;100.00
27014;BME280;14556;52.222;4.510;2023-06-26T08:22:34;100890.91;;;20.76;100.00
27014;BME280;14556;52.222;4.510;2023-06-26T08:25:02;100888.19;;;20.71;100.00
27014;BME280;14556;52.222;4.510;2023-06-26T08:27:30;100879.47;;;20.63;100.00
27014;BME280;14556;52.222;4.510;2023-06-26T08:29:56;100889.03;;;20.76;100.00
27014;BME280;14556;52.222;4.510;2023-06-26T08:32:23;100897.16;;;20.71;100.00
27014;BME280;14556;52.222;4.510;2023-06-26T08:34:49;100892.03;;;20.80;100.00
27014;BME280;14556;52.222;4.510;2023-06-26T08:37:17;100895.91;;;21.10;100.00
27014;BME280;14556;52.222;4.510;2023-06-26T08:39:43;100899.50;;;21.37;100.00
27014;BME280;14556;52.222;4.510;2023-06-26T08:42:10;100901.94;;;21.28;100.00
27014;BME280;14556;52.222;4.510;2023-06-26T08:44:36;100911.22;;;21.43;100.00
27014;BME280;14556;52.222;4.510;2023-06-26T08:47:18;100913.09;;;21.26;100.00
27014;BME280;14556;52.222;4.510;2023-06-26T08:50:07;100918.81;;;21.25;100.00
27014;BME280;14556;52.222;4.510;2023-06-26T08:53:07;100921.53;;;21.41;100.00
27014;BME280;14556;52.222;4.510;2023-06-26T08:55:38;100932.41;;;21.20;100.00
27014;BME280;14556;52.222;4.510;2023-06-26T08:58:07;100919.94;;;21.55;100.00
27014;BME280;14556;52.222;4.510;2023-06-26T09:00:34;100929.75;;;21.93;96.54
27014;BME280;14556;52.222;4.510;2023-06-26T09:03:03;100927.81;;;21.78;100.00
27014;BME280;14556;52.222;4.510;2023-06-26T09:05:32;100937.34;;;22.12;94.35
27014;BME280;14556;52.222;4.510;2023-06-26T09:07:59;100937.91;;;21.98;100.00
27014;BME280;14556;52.222;4.510;2023-06-26T09:10:26;100933.81;;;22.16;100.00
27014;BME280;14556;52.222;4.510;2023-06-26T09:12:55;100941.91;;;22.48;92.65
27014;BME280;14556;52.222;4.510;2023-06-26T09:15:23;100945.72;;;22.46;100.00
27014;BME280;14556;52.222;4.510;2023-06-26T09:17:50;100952.50;;;22.54;87.39
27014;BME280;14556;52.222;4.510;2023-06-26T09:20:22;100950.81;;;22.79;81.75
27014;BME280;14556;52.222;4.510;2023-06-26T09:22:48;100947.63;;;23.17;75.62
27014;BME280;14556;52.222;4.510;2023-06-26T09:25:16;100958.44;;;23.33;82.84
27014;BME280;14556;52.222;4.510;2023-06-26T09:27:43;100956.16;;;23.51;74.89
27014;BME280;14556;52.222;4.510;2023-06-26T09:30:10;100953.22;;;23.42;75.72
27014;BME280;14556;52.222;4.510;2023-06-26T09:32:37;100959.09;;;23.60;73.87
27014;BME280;14556;52.222;4.510;2023-06-26T09:35:04;100966.44;;;23.64;73.96
27014;BME280;14556;52.222;4.510;2023-06-26T09:37:31;100967.09;;;23.86;69.87
27014;BME280;14556;52.222;4.510;2023-06-26T09:39:57;100973.06;;;24.23;68.96
27014;BME280;14556;52.222;4.510;2023-06-26T09:42:24;100967.47;;;23.74;69.77
27014;BME280;14556;52.222;4.510;2023-06-26T09:44:50;100978.13;;;24.05;69.85
27014;BME280;14556;52.222;4.510;2023-06-26T09:47:21;100979.34;;;24.23;68.15
27014;BME280;14556;52.222;4.510;2023-06-26T09:49:50;100991.50;;;24.36;68.24
27014;BME280;14556;52.222;4.510;2023-06-26T09:52:18;100998.25;;;24.20;65.80
27014;BME280;14556;52.222;4.510;2023-06-26T09:54:48;100997.50;;;24.38;67.47
27014;BME280;14556;52.222;4.510;2023-06-26T09:57:16;100995.50;;;24.20;67.00
27014;BME280;14556;52.222;4.510;2023-06-26T09:59:44;100988.59;;;23.93;63.11
27014;BME280;14556;52.222;4.510;2023-06-26T10:02:11;100996.41;;;23.70;64.12
27014;BME280;14556;52.222;4.510;2023-06-26T10:04:39;101002.66;;;23.75;71.06
27014;BME280;14556;52.222;4.510;2023-06-26T10:07:10;101013.31;;;23.77;68.37
27014;BME280;14556;52.222;4.510;2023-06-26T10:09:41;101033.16;;;23.88;67.55
27014;BME280;14556;52.222;4.510;2023-06-26T10:12:20;101011.97;;;23.74;63.81
27014;BME280;14556;52.222;4.510;2023-06-26T10:14:50;101012.88;;;23.59;65.95
27014;BME280;14556;52.222;4.510;2023-06-26T10:17:19;101002.31;;;23.47;67.20
27014;BME280;14556;52.222;4.510;2023-06-26T10:19:48;101003.38;;;23.51;70.02
27014;BME280;14556;52.222;4.510;2023-06-26T10:22:17;101002.69;;;23.25;68.09
27014;BME280;14556;52.222;4.510;2023-06-26T10:24:46;101019.22;;;23.49;70.02
27014;BME280;14556;52.222;4.510;2023-06-26T10:27:16;101020.66;;;23.76;65.07
27014;BME280;14556;52.222;4.510;2023-06-26T10:29:46;101022.50;;;23.91;70.52
27014;BME280;14556;52.222;4.510;2023-06-26T10:32:15;101015.06;;;23.97;63.27
27014;BME280;14556;52.222;4.510;2023-06-26T10:34:43;101028.50;;;24.29;66.17
27014;BME280;14556;52.222;4.510;2023-06-26T10:37:12;101025.59;;;23.79;62.86
27014;BME280;14556;52.222;4.510;2023-06-26T10:39:52;101031.41;;;24.02;62.50
27014;BME280;14556;52.222;4.510;2023-06-26T10:42:34;101042.41;;;23.97;62.68
27014;BME280;14556;52.222;4.510;2023-06-26T10:45:14;101049.81;;;23.91;65.39
27014;BME280;14556;52.222;4.510;2023-06-26T10:47:41;101058.41;;;24.09;63.37
27014;BME280;14556;52.222;4.510;2023-06-26T10:50:28;101052.38;;;24.12;63.97
27014;BME280;14556;52.222;4.510;2023-06-26T10:53:22;101050.34;;;23.94;67.52
27014;BME280;14556;52.222;4.510;2023-06-26T10:58:34;101049.63;;;24.18;63.13
27014;BME280;14556;52.222;4.510;2023-06-26T11:01:14;101058.25;;;23.95;62.06
27014;BME280;14556;52.222;4.510;2023-06-26T11:03:44;101059.63;;;23.47;65.91
27014;BME280;14556;52.222;4.510;2023-06-26T11:06:17;101069.28;;;23.24;70.95
27014;BME280;14556;52.222;4.510;2023-06-26T11:08:54;101074.00;;;23.02;65.57
27014;BME280;14556;52.222;4.510;2023-06-26T11:11:22;101074.78;;;23.13;70.68
27014;BME280;14556;52.222;4.510;2023-06-26T11:14:08;101055.44;;;23.10;64.31
27014;BME280;14556;52.222;4.510;2023-06-26T11:16:36;101069.94;;;22.89;69.82
27014;BME280;14556;52.222;4.510;2023-06-26T11:19:03;101087.69;;;22.76;67.65
27014;BME280;14556;52.222;4.510;2023-06-26T11:21:30;101093.69;;;22.68;69.32
27014;BME280;14556;52.222;4.510;2023-06-26T11:23:58;101093.94;;;22.82;69.63
27014;BME280;14556;52.222;4.510;2023-06-26T11:26:27;101101.59;;;22.59;67.41
27014;BME280;14556;52.222;4.510;2023-06-26T11:28:55;101112.25;;;22.66;68.73
27014;BME280;14556;52.222;4.510;2023-06-26T11:33:53;101117.69;;;22.71;74.00
27014;BME280;14556;52.222;4.510;2023-06-26T11:36:23;101114.44;;;22.69;70.13
27014;BME280;14556;52.222;4.510;2023-06-26T11:41:25;101103.22;;;22.86;71.82
27014;BME280;14556;52.222;4.510;2023-06-26T11:43:52;101112.47;;;22.96;68.61
27014;BME280;14556;52.222;4.510;2023-06-26T11:46:20;101107.25;;;23.10;72.31
27014;BME280;14556;52.222;4.510;2023-06-26T11:48:48;101134.28;;;23.06;67.15
27014;BME280;14556;52.222;4.510;2023-06-26T11:51:15;101122.53;;;23.11;65.92
27014;BME280;14556;52.222;4.510;2023-06-26T11:53:43;101114.59;;;23.14;68.18
27014;BME280;14556;52.222;4.510;2023-06-26T11:56:11;101115.66;;;23.24;64.68
27014;BME280;14556;52.222;4.510;2023-06-26T12:01:42;101121.22;;;22.51;69.70
27014;BME280;14556;52.222;4.510;2023-06-26T12:04:11;101132.94;;;22.25;77.37
27014;BME280;14556;52.222;4.510;2023-06-26T12:06:40;101129.09;;;22.16;80.02
27014;BME280;14556;52.222;4.510;2023-06-26T12:09:09;101142.53;;;22.64;74.49
27014;BME280;14556;52.222;4.510;2023-06-26T12:11:38;101138.66;;;22.86;70.93
27014;BME280;14556;52.222;4.510;2023-06-26T12:14:06;101147.09;;;22.95;66.37
27014;BME280;14556;52.222;4.510;2023-06-26T12:16:34;101149.22;;;23.19;67.04
27014;BME280;14556;52.222;4.510;2023-06-26T12:19:06;101152.75;;;23.30;68.79
27014;BME280;14556;52.222;4.510;2023-06-26T12:24:00;101144.31;;;23.21;65.26
27014;BME280;14556;52.222;4.510;2023-06-26T12:26:30;101145.06;;;23.53;64.36
27014;BME280;14556;52.222;4.510;2023-06-26T12:29:18;101157.06;;;23.36;66.54
27014;BME280;14556;52.222;4.510;2023-06-26T12:31:53;101153.25;;;23.53;66.76
27014;BME280;14556;52.222;4.510;2023-06-26T12:34:25;101161.19;;;23.44;63.17
27014;BME280;14556;52.222;4.510;2023-06-26T12:36:51;101158.16;;;23.51;65.89
27014;BME280;14556;52.222;4.510;2023-06-26T12:39:20;101159.31;;;23.29;64.67
27014;BME280;14556;52.222;4.510;2023-06-26T12:41:56;101152.91;;;23.65;63.03
27014;BME280;14556;52.222;4.510;2023-06-26T12:44:30;101158.13;;;23.56;64.15
27014;BME280;14556;52.222;4.510;2023-06-26T12:47:00;101158.41;;;23.54;66.46
27014;BME280;14556;52.222;4.510;2023-06-26T12:49:37;101151.56;;;23.67;64.02
27014;BME280;14556;52.222;4.510;2023-06-26T12:52:09;101159.19;;;23.71;65.42
27014;BME280;14556;52.222;4.510;2023-06-26T12:54:38;101162.25;;;23.53;60.25
27014;BME280;14556;52.222;4.510;2023-06-26T12:57:05;101171.28;;;23.33;64.82
27014;BME280;14556;52.222;4.510;2023-06-26T12:59:33;101164.19;;;23.42;65.71
27014;BME280;14556;52.222;4.510;2023-06-26T13:02:00;101162.19;;;23.69;63.04